Time;durP1;ratioP1;P1;durP2;ratioP2;P2;SDS_P1;SDS_P2;PMS_P1;PMS_P2;Temp;Humidity;BMP_temperature;BMP_pressure;BME280_temperature;BME280_humidity;BME280_pressure;Samples;Min_cycle;Max_cycle;Signal;HPM_P1;HPM_P2
2022/04/09 07:29:11;;;;;;;37.70;20.80;;;;;;;18.88;53.39;99883.94;5072116;28;20387;-59
2022/04/09 07:31:38;;;;;;;34.05;21.52;;;;;;;18.90;53.50;99887.34;5088081;28;20033;-58
2022/04/09 07:34:04;;;;;;;32.22;20.10;;;;;;;18.86;53.36;99899.06;5074864;28;20021;-60
2022/04/09 07:36:29;;;;;;;33.42;21.42;;;;;;;18.87;53.22;99906.94;5071951;28;20362;-59
2022/04/09 07:38:55;;;;;;;35.92;20.05;;;;;;;18.90;52.73;99906.72;5071854;28;20043;-57
2022/04/09 07:41:21;;;;;;;29.75;19.17;;;;;;;18.79;52.79;99910.97;5072093;28;20028;-57
2022/04/09 07:43:46;;;;;;;30.05;18.90;;;;;;;18.85;53.13;99913.28;5074627;28;20412;-58
2022/04/09 07:46:11;;;;;;;33.55;18.73;;;;;;;18.90;53.47;99916.47;5073370;28;20029;-58
2022/04/09 07:48:37;;;;;;;30.65;19.48;;;;;;;18.92;53.32;99920.75;5071721;28;20031;-58
2022/04/09 07:51:03;;;;;;;31.63;18.92;;;;;;;18.94;53.03;99925.91;5071861;28;20361;-58
2022/04/09 07:53:28;;;;;;;30.85;18.80;;;;;;;18.98;53.43;99930.94;5087558;28;20020;-59
2022/04/09 07:55:56;;;;;;;31.35;17.77;;;;;;;19.00;53.34;99930.84;5071417;28;20039;-59
2022/04/09 07:58:22;;;;;;;29.70;18.52;;;;;;;19.00;53.32;99933.50;5087552;28;20028;-58
2022/04/09 08:00:48;;;;;;;30.10;18.08;;;;;;;19.01;53.19;99940.53;5071358;28;20596;-58
2022/04/09 08:03:14;;;;;;;25.13;17.63;;;;;;;19.02;53.05;99936.06;5070306;28;20361;-59
2022/04/09 08:05:39;;;;;;;25.17;17.10;;;;;;;19.02;53.18;99939.56;5071186;28;20029;-59
2022/04/09 08:08:05;;;;;;;26.00;16.27;;;;;;;19.03;52.81;99943.91;5071028;28;20017;-58
2022/04/09 08:10:31;;;;;;;27.65;17.02;;;;;;;19.03;53.23;99946.56;5071179;28;20028;-59
2022/04/09 08:12:56;;;;;;;27.55;17.00;;;;;;;19.06;52.56;99956.09;5070036;28;20032;-59
2022/04/09 08:15:23;;;;;;;26.50;16.60;;;;;;;19.04;52.97;99956.22;5071015;28;20031;-59
2022/04/09 08:17:54;;;;;;;27.73;17.25;;;;;;;19.07;52.66;99963.13;5070729;28;20568;-57
2022/04/09 08:20:22;;;;;;;25.35;16.75;;;;;;;19.09;52.38;99969.19;5070727;28;20025;-59
2022/04/09 08:22:48;;;;;;;24.75;16.05;;;;;;;19.08;52.72;99963.03;5070592;28;20059;-59
2022/04/09 08:25:13;;;;;;;24.13;15.93;;;;;;;19.12;52.44;99969.84;5066853;28;20036;-60
2022/04/09 08:27:45;;;;;;;26.70;16.23;;;;;;;19.12;52.96;99966.34;5070360;28;20024;-59
2022/04/09 08:30:11;;;;;;;24.42;15.88;;;;;;;19.12;53.16;99961.88;5070236;28;20036;-61
2022/04/09 08:32:36;;;;;;;24.17;15.50;;;;;;;19.12;52.40;99972.50;5070239;28;20024;-61
2022/04/09 08:35:02;;;;;;;25.55;15.05;;;;;;;19.08;52.37;99971.00;5070164;28;20074;-59
2022/04/09 08:37:30;;;;;;;28.63;15.38;;;;;;;19.14;52.56;99983.84;5062279;28;20074;-58
2022/04/09 08:39:55;;;;;;;28.30;15.55;;;;;;;19.16;52.47;99986.41;5040627;28;20095;-59
2022/04/09 08:42:21;;;;;;;27.65;15.45;;;;;;;19.23;51.99;99997.50;5052888;28;20021;-55
2022/04/09 08:44:49;;;;;;;26.58;14.88;;;;;;;19.22;52.23;99990.47;5036455;28;20025;-57
2022/04/09 08:47:15;;;;;;;29.38;14.65;;;;;;;19.21;52.25;99994.09;5037342;28;20025;-60
2022/04/09 08:49:45;;;;;;;26.67;15.63;;;;;;;19.23;52.95;99987.75;5055182;28;20478;-59
2022/04/09 08:52:10;;;;;;;56.75;14.60;;;;;;;19.24;52.32;99991.25;5056842;28;20040;-59
2022/04/09 08:54:36;;;;;;;35.08;14.57;;;;;;;19.25;52.45;99987.66;5039627;28;20020;-59
2022/04/09 08:57:02;;;;;;;26.83;14.65;;;;;;;19.28;52.37;99990.13;5056030;28;20040;-60
2022/04/09 08:59:27;;;;;;;37.55;15.35;;;;;;;19.30;52.35;99983.78;5057752;28;20045;-59
2022/04/09 09:01:53;;;;;;;37.92;14.20;;;;;;;19.28;52.59;99990.97;5055917;28;20511;-58
2022/04/09 09:04:18;;;;;;;27.55;14.60;;;;;;;19.27;53.03;99983.09;5056872;28;20021;-59
2022/04/09 09:06:45;;;;;;;37.13;13.98;;;;;;;19.26;52.39;99992.84;5056770;28;20047;-59
2022/04/09 09:09:36;;;;;;;29.63;14.10;;;;;;;19.26;52.47;99998.16;5056851;28;20477;-55
2022/04/09 09:12:06;;;;;;;31.60;13.95;;;;;;;19.31;52.46;99987.25;5056786;28;20021;-61
2022/04/09 09:14:37;;;;;;;43.40;14.35;;;;;;;19.27;52.45;99993.69;5056887;28;20025;-59
2022/04/09 09:17:05;;;;;;;25.88;14.13;;;;;;;19.29;52.23;99990.03;5056623;28;20060;-59
2022/04/09 09:19:40;;;;;;;32.15;14.18;;;;;;;19.32;52.54;99981.03;5055668;28;20126;-58
2022/04/09 09:22:10;;;;;;;28.15;12.95;;;;;;;19.29;52.47;100002.41;5054424;28;20124;-58
2022/04/09 09:24:38;;;;;;;51.85;14.18;;;;;;;19.28;52.46;99996.25;5055876;28;20439;-57
2022/04/09 09:27:04;;;;;;;23.50;12.88;;;;;;;19.31;52.23;100000.50;5055347;28;20048;-58
2022/04/09 09:29:30;;;;;;;28.48;12.82;;;;;;;19.28;52.37;100000.72;5055703;28;20033;-58
2022/04/09 09:31:56;;;;;;;27.85;13.77;;;;;;;19.33;52.10;100014.53;5055780;28;20021;-59
2022/04/09 09:34:21;;;;;;;28.90;13.35;;;;;;;19.30;52.42;100001.47;5056636;28;20028;-58
2022/04/09 09:36:48;;;;;;;32.13;14.43;;;;;;;19.30;51.96;100004.13;5055865;28;20024;-59
2022/04/09 09:39:20;;;;;;;38.13;14.60;;;;;;;19.27;52.32;99983.97;5056614;28;20355;-59
2022/04/09 09:41:51;;;;;;;39.78;13.35;;;;;;;19.27;52.81;99985.75;5056701;28;20346;-59
2022/04/09 09:44:20;;;;;;;25.77;12.90;;;;;;;19.31;52.36;100004.00;5039947;28;20121;-59
2022/04/09 09:46:47;;;;;;;29.55;13.73;;;;;;;19.30;52.26;99989.06;5056491;28;20359;-59
2022/04/09 09:49:13;;;;;;;31.52;13.00;;;;;;;19.32;52.46;99992.47;5055783;28;20040;-57
2022/04/09 09:51:38;;;;;;;36.58;12.80;;;;;;;19.31;52.16;100000.50;5055498;28;20021;-57
2022/04/09 09:54:07;;;;;;;33.15;14.10;;;;;;;19.29;52.37;99997.09;5056318;28;20358;-58
2022/04/09 09:56:41;;;;;;;34.83;13.52;;;;;;;19.30;52.39;100006.78;5056031;28;20065;-58
2022/04/09 09:59:10;;;;;;;38.13;13.45;;;;;;;19.29;52.90;100007.69;5056214;28;20104;-56
2022/04/09 10:01:39;;;;;;;32.28;12.77;;;;;;;19.32;52.92;100012.84;5071796;28;20021;-60
2022/04/09 10:04:05;;;;;;;34.35;12.40;;;;;;;19.29;52.38;100013.88;5055337;28;20031;-59
2022/04/09 10:06:33;;;;;;;36.88;13.23;;;;;;;19.28;52.80;100004.22;5056232;28;20346;-60
2022/04/09 10:08:59;;;;;;;29.45;13.45;;;;;;;19.28;52.88;100016.63;5055980;28;20021;-55
2022/04/09 10:11:28;;;;;;;42.50;13.45;;;;;;;19.29;52.51;100023.59;5055146;28;20133;-60
2022/04/09 10:13:57;;;;;;;23.40;12.68;;;;;;;19.31;52.38;100016.41;5071950;28;20035;-59
2022/04/09 10:16:27;;;;;;;41.17;13.70;;;;;;;19.29;52.47;100003.28;5056013;28;20099;-60
2022/04/09 10:18:56;;;;;;;37.42;13.93;;;;;;;19.34;52.55;100000.34;5038981;28;20522;-58
2022/04/09 10:21:24;;;;;;;36.80;13.75;;;;;;;19.37;52.33;100002.81;5054562;28;20024;-59
2022/04/09 10:23:50;;;;;;;39.10;14.52;;;;;;;19.32;52.23;100012.84;5038122;28;20450;-60
2022/04/09 10:26:18;;;;;;;77.50;14.48;;;;;;;19.27;52.59;100005.16;5022042;28;20418;-58
2022/04/09 10:28:47;;;;;;;50.08;14.27;;;;;;;19.26;52.71;100011.41;5054934;28;20029;-51
2022/04/09 10:31:22;;;;;;;42.75;13.13;;;;;;;19.24;52.68;100012.44;5054831;28;20040;-50
2022/04/09 10:33:55;;;;;;;30.20;12.82;;;;;;;19.26;52.89;100014.06;5055703;28;20450;-54
2022/04/09 10:36:40;;;;;;;33.22;13.98;;;;;;;19.24;52.55;100031.00;5038404;28;20162;-50
2022/04/09 10:39:36;;;;;;;36.75;14.52;;;;;;;19.22;52.98;100027.56;5054617;28;20025;-52
2022/04/09 10:42:02;;;;;;;33.58;13.38;;;;;;;19.22;53.02;100017.81;5056442;28;20025;-53
2022/04/09 10:44:50;;;;;;;47.17;13.63;;;;;;;19.22;52.76;100023.13;5058066;28;20024;-53
2022/04/09 10:47:15;;;;;;;34.30;13.30;;;;;;;19.26;52.85;100026.44;5045688;28;20090;-50
2022/04/09 10:50:16;;;;;;;41.80;14.43;;;;;;;19.29;52.92;100018.31;5054772;28;20037;-53
2022/04/09 10:52:44;;;;;;;34.17;14.30;;;;;;;19.30;53.26;100027.97;4998221;28;20041;-55
2022/04/09 10:55:12;;;;;;;36.15;13.13;;;;;;;19.28;52.79;100012.16;5048303;28;20458;-54
2022/04/09 10:57:44;;;;;;;28.25;13.07;;;;;;;19.29;52.85;100013.88;5055023;28;20016;-50
2022/04/09 11:00:28;;;;;;;42.35;13.60;;;;;;;19.30;53.28;100010.28;5038287;28;20497;-53
2022/04/09 11:03:16;;;;;;;38.38;13.95;;;;;;;19.29;52.51;100008.59;5044145;28;20026;-58
2022/04/09 11:05:43;;;;;;;38.78;13.48;;;;;;;19.25;52.77;100028.25;5038323;28;20331;-54
2022/04/09 11:08:17;;;;;;;29.02;12.55;;;;;;;19.29;52.80;100029.78;5054401;28;20025;-59
2022/04/09 11:10:43;;;;;;;34.13;12.85;;;;;;;19.33;52.29;100025.13;5054471;28;20043;-60
2022/04/09 11:13:12;;;;;;;28.00;13.02;;;;;;;19.35;52.28;100023.25;5054436;28;20025;-57
2022/04/09 11:15:40;;;;;;;28.35;12.50;;;;;;;19.35;52.10;100018.78;5055076;28;20108;-59
2022/04/09 11:18:06;;;;;;;28.92;11.27;;;;;;;19.35;52.35;100031.19;5035819;28;20029;-60
2022/04/09 11:20:32;;;;;;;26.73;12.13;;;;;;;19.33;52.08;100020.69;5054962;28;20199;-59
2022/04/09 11:23:06;;;;;;;24.65;11.73;;;;;;;19.34;52.05;100017.09;5054204;28;20137;-63
2022/04/09 11:25:33;;;;;;;23.90;11.93;;;;;;;19.34;51.96;100000.34;5022201;28;20393;-58
2022/04/09 11:28:12;;;;;;;21.20;11.73;;;;;;;19.36;51.74;100001.06;5054901;28;20029;-60
2022/04/09 11:30:38;;;;;;;26.70;12.23;;;;;;;19.36;52.07;100024.94;5054053;28;20106;-55
2022/04/09 11:33:03;;;;;;;24.90;12.13;;;;;;;19.31;52.65;100019.06;5037274;28;20574;-55
2022/04/09 11:35:35;;;;;;;27.88;12.35;;;;;;;19.34;52.12;100013.59;5053779;28;20024;-59
2022/04/09 11:38:02;;;;;;;23.55;12.02;;;;;;;19.32;52.16;100015.50;5037157;28;20021;-59
2022/04/09 11:40:28;;;;;;;21.85;11.77;;;;;;;19.31;52.18;100011.97;5053776;28;20059;-59
2022/04/09 11:42:57;;;;;;;23.52;10.95;;;;;;;19.29;52.36;100013.00;5054627;28;20446;-59
2022/04/09 11:45:27;;;;;;;22.50;12.43;;;;;;;19.32;52.69;100015.50;5054030;28;20028;-60
2022/04/09 11:47:54;;;;;;;255.85;179.32;;;;;;;18.19;44.41;100034.41;5053488;28;20032;-59
2022/04/09 11:50:25;;;;;;;188.32;134.15;;;;;;;18.34;48.46;100025.59;5053648;28;20032;-61
2022/04/09 11:52:53;;;;;;;120.63;85.35;;;;;;;18.71;49.57;100035.88;5054374;28;20021;-59
2022/04/09 11:55:18;;;;;;;121.68;86.38;;;;;;;18.93;49.06;100027.53;5053701;28;20083;-56
2022/04/09 11:57:56;;;;;;;116.97;83.15;;;;;;;19.14;49.22;100036.84;5036926;28;20339;-57
2022/04/09 12:00:27;;;;;;;109.80;80.13;;;;;;;19.21;49.43;100031.19;5054576;28;20020;-57
2022/04/09 12:02:53;;;;;;;107.80;78.45;;;;;;;19.23;49.29;100038.09;5054503;28;20382;-57
2022/04/09 12:05:18;;;;;;;105.53;75.55;;;;;;;19.27;49.23;100036.09;5053642;28;20448;-59
2022/04/09 12:07:44;;;;;;;108.70;77.65;;;;;;;19.36;49.81;100035.53;5053746;28;20023;-57
2022/04/09 12:10:31;;;;;;;107.45;76.45;;;;;;;19.39;49.81;100041.53;5056535;28;20033;-54
2022/04/09 12:13:01;;;;;;;109.25;75.50;;;;;;;19.43;50.91;100044.81;5053455;28;20021;-57
2022/04/09 12:15:31;;;;;;;106.32;76.28;;;;;;;19.53;51.35;100038.03;5056395;28;20099;-55
2022/04/09 12:17:57;;;;;;;106.57;75.90;;;;;;;19.48;53.86;100049.84;5057977;28;20461;-55
2022/04/09 12:20:35;;;;;;;100.13;72.20;;;;;;;19.47;53.49;100032.25;5057238;28;20095;-56
2022/04/09 12:23:03;;;;;;;106.50;74.90;;;;;;;19.51;55.51;100045.22;5057169;28;20025;-59
2022/04/09 12:25:42;;;;;;;102.95;73.75;;;;;;;19.54;55.27;100050.31;5058071;28;20016;-59
2022/04/09 12:28:37;;;;;;;106.55;71.47;;;;;;;19.54;56.50;100042.38;5056895;28;20121;-60
2022/04/09 12:31:03;;;;;;;103.03;70.93;;;;;;;19.55;55.90;100054.69;5048315;28;20120;-57
2022/04/09 12:33:28;;;;;;;97.65;69.40;;;;;;;19.54;55.94;100052.97;5056780;28;20021;-58
2022/04/09 12:36:08;;;;;;;98.03;68.40;;;;;;;19.57;56.81;100042.19;5056932;28;20043;-58
2022/04/09 12:38:38;;;;;;;98.97;69.40;;;;;;;19.54;56.69;100054.78;5055015;28;20231;-57
2022/04/09 12:41:05;;;;;;;92.95;67.38;;;;;;;19.54;56.08;100050.31;5055676;28;20021;-58
2022/04/09 12:43:35;;;;;;;92.57;66.75;;;;;;;19.58;55.94;100051.84;5054851;28;20025;-61
2022/04/09 12:46:05;;;;;;;85.90;63.00;;;;;;;19.64;56.49;100065.66;5038310;28;20044;-57
2022/04/09 12:48:43;;;;;;;85.07;61.47;;;;;;;19.61;56.32;100066.72;5055728;28;20031;-58
2022/04/09 12:51:13;;;;;;;83.15;62.28;;;;;;;19.53;57.12;100069.84;5056337;28;20021;-58
2022/04/09 12:53:38;;;;;;;84.90;60.80;;;;;;;19.48;56.79;100071.94;5054539;28;20025;-59
2022/04/09 12:56:08;;;;;;;83.50;61.20;;;;;;;19.45;56.59;100077.41;5058934;28;20031;-55
2022/04/09 12:58:33;;;;;;;80.28;59.03;;;;;;;19.42;56.07;100077.59;5055541;28;20024;-57
2022/04/09 13:01:01;;;;;;;84.45;59.22;;;;;;;19.41;56.83;100107.72;5038062;28;20056;-57
2022/04/09 13:03:26;;;;;;;82.82;60.25;;;;;;;19.42;56.31;100120.00;5055530;28;20490;-59
2022/04/09 13:05:55;;;;;;;78.00;56.75;;;;;;;19.41;56.59;100113.00;5055982;28;20122;-56
2022/04/09 13:08:23;;;;;;;75.00;58.10;;;;;;;19.42;56.40;100119.16;5054794;28;20506;-59
2022/04/09 13:10:51;;;;;;;78.38;56.47;;;;;;;19.46;55.79;100110.94;5053413;28;20035;-57
2022/04/09 13:13:18;;;;;;;79.35;56.67;;;;;;;19.51;55.30;100113.31;5054309;28;20128;-56
2022/04/09 13:15:44;;;;;;;85.45;58.63;;;;;;;19.54;54.94;100113.97;5037175;28;20032;-57
2022/04/09 13:18:10;;;;;;;69.18;53.65;;;;;;;19.57;54.69;100127.06;5037617;28;20021;-57
2022/04/09 13:20:36;;;;;;;75.82;53.92;;;;;;;19.55;54.49;100122.75;5054791;28;20033;-55
2022/04/09 13:23:05;;;;;;;76.18;52.75;;;;;;;19.49;54.83;100131.09;5054887;28;20350;-54
2022/04/09 13:25:36;;;;;;;72.00;53.53;;;;;;;19.47;55.35;100127.69;5054730;28;20108;-58
2022/04/09 13:28:05;;;;;;;72.05;53.25;;;;;;;19.52;55.03;100137.06;5054576;28;20020;-59
2022/04/09 13:30:33;;;;;;;73.63;54.27;;;;;;;19.57;54.71;100129.69;5054841;28;20086;-59
2022/04/09 13:33:01;;;;;;;72.18;52.33;;;;;;;19.59;54.27;100122.47;5053299;28;20041;-58
2022/04/09 13:35:27;;;;;;;69.07;50.97;;;;;;;19.59;53.93;100125.13;5055077;28;20469;-57
2022/04/09 13:37:52;;;;;;;66.80;49.00;;;;;;;19.60;53.91;100124.19;5054742;28;20112;-56
2022/04/09 13:40:22;;;;;;;64.25;50.03;;;;;;;19.56;54.04;100125.31;5054831;28;20070;-59
2022/04/09 13:42:48;;;;;;;65.60;49.80;;;;;;;19.55;53.76;100120.09;5054819;28;20104;-57
2022/04/09 13:45:14;;;;;;;71.32;51.72;;;;;;;19.56;54.38;100133.28;5054016;28;20016;-58
2022/04/09 13:47:45;;;;;;;66.72;51.22;;;;;;;19.64;54.04;100121.34;5054725;28;20013;-58
2022/04/09 13:50:10;;;;;;;63.90;48.75;;;;;;;19.66;53.46;100122.97;5054162;28;20025;-60
2022/04/09 13:52:36;;;;;;;62.63;48.00;;;;;;;19.65;53.34;100120.44;5053702;28;20067;-59
2022/04/09 13:55:01;;;;;;;63.63;48.22;;;;;;;19.67;53.16;100134.44;5036839;28;20025;-58
2022/04/09 13:57:29;;;;;;;66.28;47.47;;;;;;;19.66;53.21;100128.25;5036296;28;20043;-56
2022/04/09 13:59:54;;;;;;;61.10;45.55;;;;;;;19.69;52.97;100133.44;5054404;28;20027;-56
2022/04/09 14:02:19;;;;;;;65.10;46.88;;;;;;;19.71;53.00;100128.03;5054316;28;20024;-53
2022/04/09 14:04:45;;;;;;;61.50;45.88;;;;;;;19.75;53.23;100124.25;5053505;28;20112;-59
2022/04/09 14:07:13;;;;;;;63.63;46.40;;;;;;;19.77;53.04;100132.97;5053929;28;20100;-58
2022/04/09 14:09:40;;;;;;;58.05;45.50;;;;;;;19.75;53.10;100114.47;5053638;28;20040;-47
2022/04/09 14:12:08;;;;;;;61.83;44.63;;;;;;;19.77;52.64;100130.31;5053737;28;20033;-55
2022/04/09 14:14:34;;;;;;;62.22;44.47;;;;;;;19.81;52.75;100126.53;5053323;28;20709;-55
2022/04/09 14:17:01;;;;;;;60.35;45.45;;;;;;;19.81;52.63;100131.84;5053342;28;20032;-58
2022/04/09 14:19:32;;;;;;;58.95;45.20;;;;;;;19.86;52.66;100140.34;5054064;28;20074;-59
2022/04/09 14:22:00;;;;;;;56.65;43.42;;;;;;;19.90;52.25;100141.88;5053981;28;20102;-59
2022/04/09 14:24:28;;;;;;;58.85;44.38;;;;;;;19.90;52.22;100133.91;5053691;28;20017;-56
2022/04/09 14:26:54;;;;;;;54.17;41.25;;;;;;;19.91;52.08;100146.22;5052540;28;20036;-59
2022/04/09 14:29:20;;;;;;;59.45;43.45;;;;;;;19.82;52.44;100142.31;5052750;28;20020;-55
2022/04/09 14:31:50;;;;;;;56.80;41.42;;;;;;;19.84;52.32;100147.56;5053505;28;20029;-59
2022/04/09 14:34:15;;;;;;;57.85;41.72;;;;;;;19.83;52.48;100140.56;5052520;28;20021;-59
2022/04/09 14:36:43;;;;;;;54.65;41.10;;;;;;;19.82;52.37;100137.03;5053346;28;20029;-58
2022/04/09 14:39:11;;;;;;;54.83;41.05;;;;;;;19.85;52.39;100135.97;5053330;28;20334;-58
2022/04/09 14:41:37;;;;;;;53.80;41.13;;;;;;;19.87;52.91;100144.69;5052204;28;20044;-57
2022/04/09 14:44:03;;;;;;;55.47;41.70;;;;;;;19.85;53.02;100145.75;5052507;28;20023;-59
2022/04/09 14:46:28;;;;;;;55.33;40.47;;;;;;;19.84;52.69;100152.84;5053192;28;20111;-56
2022/04/09 14:48:54;;;;;;;61.40;40.47;;;;;;;19.85;53.02;100159.00;5051897;28;20013;-58
2022/04/09 14:51:21;;;;;;;54.08;38.08;;;;;;;19.90;53.37;100152.50;5054029;28;20044;-58
2022/04/09 14:53:49;;;;;;;57.05;40.28;;;;;;;19.95;53.17;100161.03;5055036;28;20523;-52
2022/04/09 14:56:14;;;;;;;55.97;40.10;;;;;;;19.94;53.34;100156.63;5054708;28;20370;-60
2022/04/09 14:58:45;;;;;;;49.47;37.15;;;;;;;19.94;53.35;100164.59;5053809;28;20025;-55
2022/04/09 15:01:10;;;;;;;49.55;38.05;;;;;;;19.88;53.45;100165.00;5054914;28;20438;-56
2022/04/09 15:03:35;;;;;;;53.13;38.50;;;;;;;19.89;53.65;100161.38;5053877;28;20131;-56
2022/04/09 15:06:03;;;;;;;52.10;38.70;;;;;;;19.88;54.16;100178.25;5053881;28;20386;-56
2022/04/09 15:08:31;;;;;;;54.72;35.00;;;;;;;19.63;52.85;100192.09;5054554;28;20052;-59
2022/04/09 15:10:59;;;;;;;42.45;27.48;;;;;;;19.48;50.35;100246.91;5070300;28;20032;-59
2022/04/09 15:13:24;;;;;;;35.60;26.17;;;;;;;19.29;52.09;100265.69;5054539;28;20017;-57
2022/04/09 15:15:49;;;;;;;28.13;20.65;;;;;;;19.22;50.13;100253.69;5054786;28;20036;-58
2022/04/09 15:18:17;;;;;;;25.88;18.63;;;;;;;19.18;50.10;100247.72;5053548;28;20047;-57
2022/04/09 15:20:43;;;;;;;27.77;18.90;;;;;;;19.07;51.31;100234.22;5067131;28;20032;-57
2022/04/09 15:23:11;;;;;;;25.42;16.27;;;;;;;19.05;49.51;100244.06;5053467;28;20025;-58
2022/04/09 15:25:38;;;;;;;25.08;16.40;;;;;;;18.92;50.58;100248.34;5054467;28;20577;-56
2022/04/09 15:28:05;;;;;;;21.48;14.93;;;;;;;18.88;49.35;100244.16;5053360;28;20037;-56
2022/04/09 15:30:33;;;;;;;20.85;14.45;;;;;;;18.89;50.38;100259.09;5054458;28;20035;-57
2022/04/09 15:32:58;;;;;;;33.05;14.73;;;;;;;18.90;52.33;100263.47;5053587;28;20036;-59
2022/04/09 15:35:23;;;;;;;17.38;12.10;;;;;;;18.74;49.32;100256.31;5053372;28;20025;-58
2022/04/09 15:37:49;;;;;;;14.25;10.10;;;;;;;18.73;48.03;100267.00;5069924;28;20090;-61
2022/04/09 15:40:19;;;;;;;19.15;10.65;;;;;;;18.77;48.11;100269.41;5053448;28;20331;-57
2022/04/09 15:42:46;;;;;;;15.32;9.70;;;;;;;18.76;48.92;100273.03;5054570;28;20021;-58
2022/04/09 15:45:15;;;;;;;14.70;9.32;;;;;;;18.71;48.29;100276.84;5054200;28;20107;-59
2022/04/09 15:47:41;;;;;;;15.68;8.88;;;;;;;18.69;49.47;100274.25;5054167;28;20104;-57
2022/04/09 15:50:09;;;;;;;10.10;8.02;;;;;;;18.69;47.80;100279.56;5055930;28;20086;-57
2022/04/09 15:52:37;;;;;;;14.68;8.10;;;;;;;18.69;51.02;100284.84;5057494;28;20458;-59
2022/04/09 15:55:06;;;;;;;13.32;7.07;;;;;;;18.69;47.77;100290.16;5058158;28;20461;-58
2022/04/09 15:57:31;;;;;;;9.73;6.72;;;;;;;18.65;48.07;100293.91;5058088;28;20024;-61
2022/04/09 15:59:57;;;;;;;11.02;5.95;;;;;;;18.60;47.33;100289.81;5057993;28;20029;-60
2022/04/09 16:02:24;;;;;;;13.77;5.80;;;;;;;18.61;49.50;100287.06;5058065;28;20028;-58
2022/04/09 16:04:52;;;;;;;11.32;5.15;;;;;;;18.55;46.72;100298.84;5057927;28;20096;-59
2022/04/09 16:07:17;;;;;;;10.35;5.72;;;;;;;18.52;48.19;100292.88;5056957;28;20060;-54
2022/04/09 16:09:43;;;;;;;9.63;4.15;;;;;;;18.50;46.45;100295.59;5057958;28;20430;-52
2022/04/09 16:12:13;;;;;;;6.53;4.45;;;;;;;18.24;44.82;100299.63;5057008;28;20028;-61
2022/04/09 16:14:41;;;;;;;223.15;142.15;;;;;;;17.46;41.50;100301.72;5041704;28;20032;-57
2022/04/09 16:17:06;;;;;;;120.40;77.10;;;;;;;17.91;46.40;100302.19;5058049;28;20032;-58
2022/04/09 16:19:33;;;;;;;203.82;129.20;;;;;;;18.27;46.69;100298.59;5058091;28;20029;-54
2022/04/09 16:22:00;;;;;;;231.13;143.88;;;;;;;18.48;46.01;100308.03;5057107;28;20025;-56
2022/04/09 16:24:28;;;;;;;189.18;121.13;;;;;;;18.71;46.35;100304.16;5057214;28;20025;-54
2022/04/09 16:26:57;;;;;;;185.70;117.15;;;;;;;18.79;47.88;100316.16;5057138;28;20032;-56
2022/04/09 16:29:23;;;;;;;183.00;116.55;;;;;;;18.84;49.38;100314.97;5058013;28;20226;-56
2022/04/09 16:31:49;;;;;;;175.57;109.93;;;;;;;18.90;51.15;100311.16;5057089;28;20025;-58
2022/04/09 16:34:14;;;;;;;170.55;111.05;;;;;;;18.91;50.96;100320.78;5057972;28;20032;-54
2022/04/09 16:36:40;;;;;;;179.95;112.88;;;;;;;18.90;51.53;100319.09;5057570;28;20036;-56
2022/04/09 16:39:07;;;;;;;170.98;104.55;;;;;;;18.90;51.74;100324.41;5057619;28;20110;-51
2022/04/09 16:41:33;;;;;;;167.00;105.72;;;;;;;18.95;51.94;100322.34;5057290;28;20025;-54
2022/04/09 16:43:58;;;;;;;152.95;100.00;;;;;;;18.97;51.66;100323.13;5057264;28;20024;-50
2022/04/09 16:46:24;;;;;;;173.23;101.88;;;;;;;19.01;51.31;100329.97;5057067;28;20086;-51
2022/04/09 16:48:57;;;;;;;161.38;100.43;;;;;;;19.04;51.85;100332.44;5057911;28;20017;-54
2022/04/09 16:51:28;;;;;;;169.32;100.65;;;;;;;19.09;51.69;100327.72;5058143;28;20032;-59
2022/04/09 16:53:53;;;;;;;153.23;98.05;;;;;;;19.10;51.59;100329.44;5061342;28;20055;-59
2022/04/09 16:56:19;;;;;;;156.73;95.88;;;;;;;19.15;51.76;100330.06;5026732;28;20498;-60
2022/04/09 16:58:46;;;;;;;155.25;96.50;;;;;;;19.16;51.44;100341.50;5057620;28;20418;-59
2022/04/09 17:01:14;;;;;;;149.38;89.80;;;;;;;19.17;51.77;100344.06;5051981;28;20035;-57
2022/04/09 17:03:42;;;;;;;133.95;86.13;;;;;;;19.13;51.42;100339.88;5049633;28;20021;-59
2022/04/09 17:06:09;;;;;;;137.25;86.55;;;;;;;19.08;51.09;100349.88;5057039;28;20035;-60
2022/04/09 17:08:37;;;;;;;134.18;85.30;;;;;;;19.15;51.37;100345.97;5072611;28;20075;-58
2022/04/09 17:11:06;;;;;;;137.18;86.38;;;;;;;19.19;51.25;100347.47;5055881;28;20037;-60
2022/04/09 17:13:35;;;;;;;137.85;84.95;;;;;;;19.16;51.56;100352.94;5057087;28;20021;-53
2022/04/09 17:16:01;;;;;;;132.47;83.73;;;;;;;19.22;51.50;100353.53;5055785;28;20082;-56
2022/04/09 17:18:27;;;;;;;134.27;83.63;;;;;;;19.25;51.33;100345.44;5055676;28;20497;-53
2022/04/09 17:20:52;;;;;;;131.00;83.90;;;;;;;19.18;51.67;100340.47;5056447;28;20060;-51
